Magnolia — WDB7135 — position and weather

sailwx.info

Track history (hours):
 
Tides and Currents Weather Stations Pressure Air Temp Water Temp Dewpoint Dewpoint Depression Visibility Wind Speed Wind Dir Waves Ship Positions

Magnolia

Owner: Magnolia Marine Transport Co, Vicksburg, MS. More information available from US FCC via Universal Licensing System and Coast Guard Vessel Documentation Center.

Last reported at 2015-Apr-20 23:19 UTC. Time now 2015-Apr-26 09:49 UTC.
Position N 39°06' W 084°41'.

Length 33 m; draft 2.7 m.

Type: Towing. MMSI: 366936980.

Date/timePositionNaut miles runAvg speedWind from/ knotsBaromVisibWave heightAir tempDewpointWater temp
2015-Apr-20 23:19N 39°06' W 084°41'6 7.4
2015-Apr-20 22:33N 39°06' W 084°34'6 5.9
2015-Apr-20 21:33N 39°05' W 084°26'8 7.6
2015-Apr-20 20:33N 39°00' W 084°18'8 7.8
2015-Apr-20 19:33N 38°53' W 084°14'6 5.8
2015-Apr-20 18:31N 38°48' W 084°10'1 1.0
2015-Apr-20 17:19N 38°48' W 084°09'1 0.0
2015-Apr-20 02:32N 38°47' W 084°08'4 3.0
2015-Apr-20 01:11N 38°48' W 084°13'3 5.2
2015-Apr-20 00:31N 38°52' W 084°14'5 5.3
2015-Apr-19 23:33N 38°56' W 084°17'5 5.4
2015-Apr-19 22:32N 39°01' W 084°20'5 5.4
2015-Apr-19 21:33N 39°03' W 084°26'4 4.2
2015-Apr-19 20:32N 39°07' W 084°29'3 3.5
2015-Apr-19 19:33N 39°06' W 084°33'0 0.0
2015-Apr-19 18:32N 39°06' W 084°33'3 2.6
2015-Apr-19 17:33N 39°04' W 084°36'5 4.9
2015-Apr-19 16:33N 39°06' W 084°42'4 3.9
2015-Apr-19 15:33N 39°08' W 084°46'6 4.3
2015-Apr-19 14:07N 39°04' W 084°53'  
Track history (hours):
 
Tides and Currents Weather Stations Pressure Air Temp Water Temp Dewpoint Dewpoint Depression Visibility Wind Speed Wind Dir Waves Ship Positions

Magnolia

Owner: Magnolia Marine Transport Co, Vicksburg, MS. More information available from US FCC via Universal Licensing System and Coast Guard Vessel Documentation Center.

Last reported at 2015-Apr-20 23:19 UTC. Time now 2015-Apr-26 09:49 UTC.
Position N 39°06' W 084°41'.

Length 33 m; draft 2.7 m.

Type: Towing. MMSI: 366936980.

Date/timePositionNaut miles runAvg speedWind from/ knotsBaromVisibWave heightAir tempDewpointWater temp
2015-Apr-20 23:19N 39°06' W 084°41'6 7.4
2015-Apr-20 22:33N 39°06' W 084°34'6 5.9
2015-Apr-20 21:33N 39°05' W 084°26'8 7.6
2015-Apr-20 20:33N 39°00' W 084°18'8 7.8
2015-Apr-20 19:33N 38°53' W 084°14'6 5.8
2015-Apr-20 18:31N 38°48' W 084°10'1 1.0
2015-Apr-20 17:19N 38°48' W 084°09'1 0.0
2015-Apr-20 02:32N 38°47' W 084°08'4 3.0
2015-Apr-20 01:11N 38°48' W 084°13'3 5.2
2015-Apr-20 00:31N 38°52' W 084°14'5 5.3
2015-Apr-19 23:33N 38°56' W 084°17'5 5.4
2015-Apr-19 22:32N 39°01' W 084°20'5 5.4
2015-Apr-19 21:33N 39°03' W 084°26'4 4.2
2015-Apr-19 20:32N 39°07' W 084°29'3 3.5
2015-Apr-19 19:33N 39°06' W 084°33'0 0.0
2015-Apr-19 18:32N 39°06' W 084°33'3 2.6
2015-Apr-19 17:33N 39°04' W 084°36'5 4.9
2015-Apr-19 16:33N 39°06' W 084°42'4 3.9
2015-Apr-19 15:33N 39°08' W 084°46'6 4.3
2015-Apr-19 14:07N 39°04' W 084°53'  

Dump ship's entire track history